Time;durP1;ratioP1;P1;durP2;ratioP2;P2;SDS_P1;SDS_P2;PMS_P1;PMS_P2;Temp;Humidity;BMP_temperature;BMP_pressure;BME280_temperature;BME280_humidity;BME280_pressure;Samples;Min_cycle;Max_cycle;Signal;HPM_P1;HPM_P2
2022/11/20 00:00:04;;;;;;;;;;;19.00;63.90;;;;;;4513160;31;20110;-68
2022/11/20 00:02:30;;;;;;;;;;;18.90;63.90;;;;;;4514032;31;19992;-67
2022/11/20 00:04:57;;;;;;;;;;;18.90;64.10;;;;;;4512687;31;20043;-68
2022/11/20 00:07:23;;;;;;;;;;;18.90;64.20;;;;;;4514112;31;20051;-68
2022/11/20 00:09:48;;;;;;;;;;;18.80;64.20;;;;;;4512116;31;20024;-67
2022/11/20 00:12:19;;;;;;;;;;;18.80;64.30;;;;;;4514414;31;20174;-68
2022/11/20 00:14:45;;;;;;;;;;;18.70;64.30;;;;;;4511803;31;20217;-67
2022/11/20 00:17:11;;;;;;;;;;;18.70;64.40;;;;;;4512415;31;20041;-68
2022/11/20 00:19:37;;;;;;;;;;;18.70;64.50;;;;;;4513975;31;19988;-67
2022/11/20 00:22:02;;;;;;;;;;;18.70;64.60;;;;;;4512906;31;20021;-67
2022/11/20 00:24:29;;;;;;;;;;;18.60;64.60;;;;;;4510287;31;20024;-68
2022/11/20 00:26:55;;;;;;;;;;;18.60;64.60;;;;;;4513606;31;20048;-68
2022/11/20 00:29:20;;;;;;;;;;;18.60;64.80;;;;;;4515449;31;20017;-67
2022/11/20 00:31:46;;;;;;;;;;;18.60;64.80;;;;;;4513924;31;20036;-67
2022/11/20 00:34:12;;;;;;;;;;;18.50;64.90;;;;;;4514328;31;20031;-67
2022/11/20 00:36:38;;;;;;;;;;;18.50;64.90;;;;;;4514612;31;19984;-68
2022/11/20 00:39:03;;;;;;;;;;;18.50;65.00;;;;;;4511896;31;20467;-68
2022/11/20 00:41:29;;;;;;;;;;;18.50;65.00;;;;;;4513956;31;20250;-68
2022/11/20 00:43:55;;;;;;;;;;;18.40;65.10;;;;;;4498148;31;20138;-68
2022/11/20 00:46:23;;;;;;;;;;;18.40;65.20;;;;;;4514247;31;20093;-69
2022/11/20 00:48:48;;;;;;;;;;;18.40;65.20;;;;;;4512212;31;20037;-68
2022/11/20 00:51:15;;;;;;;;;;;18.40;65.30;;;;;;4511497;31;20070;-68
2022/11/20 00:53:41;;;;;;;;;;;18.30;65.30;;;;;;4499766;31;19990;-68
2022/11/20 00:56:09;;;;;;;;;;;18.30;65.30;;;;;;4512508;31;20040;-68
2022/11/20 00:58:36;;;;;;;;;;;18.30;65.40;;;;;;4526246;31;20502;-68
2022/11/20 01:01:11;;;;;;;;;;;18.30;65.40;;;;;;4510049;31;20024;-68
2022/11/20 01:03:38;;;;;;;;;;;18.20;65.40;;;;;;4513724;31;20075;-68
2022/11/20 01:06:06;;;;;;;;;;;18.20;65.50;;;;;;4512260;31;20523;-68
2022/11/20 01:08:33;;;;;;;;;;;18.20;65.50;;;;;;4511875;31;20044;-68
2022/11/20 01:11:09;;;;;;;;;;;18.20;65.60;;;;;;4513363;31;19991;-68
2022/11/20 01:13:38;;;;;;;;;;;18.20;65.70;;;;;;4508541;31;20119;-69
2022/11/20 01:16:05;;;;;;;;;;;18.20;65.60;;;;;;4513831;31;20029;-69
2022/11/20 01:18:31;;;;;;;;;;;18.10;65.70;;;;;;4499016;31;20086;-68
2022/11/20 01:21:05;;;;;;;;;;;18.10;65.80;;;;;;4513710;31;20017;-68
2022/11/20 01:23:32;;;;;;;;;;;18.10;65.80;;;;;;4512847;31;20158;-68
2022/11/20 01:25:59;;;;;;;;;;;18.10;65.80;;;;;;4512006;31;20024;-68
2022/11/20 01:28:25;;;;;;;;;;;18.10;65.80;;;;;;4513975;31;20082;-68
2022/11/20 01:30:50;;;;;;;;;;;18.10;65.90;;;;;;4512232;31;20025;-68
2022/11/20 01:33:16;;;;;;;;;;;18.00;65.80;;;;;;4514181;31;20045;-68
2022/11/20 01:35:44;;;;;;;;;;;18.00;65.80;;;;;;4512174;31;20028;-68
2022/11/20 01:38:12;;;;;;;;;;;18.00;65.90;;;;;;4525934;31;20032;-68
2022/11/20 01:40:38;;;;;;;;;;;18.00;65.90;;;;;;4499654;31;20079;-69
2022/11/20 01:43:21;;;;;;;;;;;18.00;65.90;;;;;;4499007;31;20024;-68
2022/11/20 01:45:55;;;;;;;;;;;18.00;66.00;;;;;;4514041;31;20482;-67
2022/11/20 01:48:22;;;;;;;;;;;18.00;66.00;;;;;;4510950;31;20033;-68
2022/11/20 01:50:48;;;;;;;;;;;17.90;66.00;;;;;;4514034;31;20124;-68
2022/11/20 01:53:16;;;;;;;;;;;17.90;66.00;;;;;;4512356;31;20037;-68
2022/11/20 01:55:46;;;;;;;;;;;17.90;66.00;;;;;;4513019;31;20052;-68
2022/11/20 01:58:11;;;;;;;;;;;17.90;66.00;;;;;;4512492;31;20421;-68
2022/11/20 02:00:37;;;;;;;;;;;17.90;66.00;;;;;;4511249;31;20033;-68
2022/11/20 02:03:15;;;;;;;;;;;17.90;66.10;;;;;;4510621;31;20051;-69
2022/11/20 02:05:47;;;;;;;;;;;17.90;66.10;;;;;;4511488;31;20029;-68
2022/11/20 02:08:14;;;;;;;;;;;17.90;66.20;;;;;;4511946;31;20614;-68
2022/11/20 02:10:40;;;;;;;;;;;17.90;66.20;;;;;;4511452;31;20025;-68
2022/11/20 02:15:50;;;;;;;;;;;17.80;66.20;;;;;;4511715;31;20117;-68
2022/11/20 02:18:17;;;;;;;;;;;17.80;66.20;;;;;;4511456;31;20036;-68
2022/11/20 02:20:43;;;;;;;;;;;17.80;66.20;;;;;;4511989;31;20079;-69
2022/11/20 02:23:16;;;;;;;;;;;17.80;66.30;;;;;;4509906;31;20020;-68
2022/11/20 02:25:42;;;;;;;;;;;17.80;66.30;;;;;;4511532;31;20110;-68
2022/11/20 02:28:09;;;;;;;;;;;17.70;66.20;;;;;;4512135;31;19973;-67
2022/11/20 02:30:35;;;;;;;;;;;17.80;66.30;;;;;;4523533;31;20041;-67
2022/11/20 02:33:00;;;;;;;;;;;17.70;66.30;;;;;;4512254;31;20021;-68
2022/11/20 02:35:26;;;;;;;;;;;17.70;66.30;;;;;;4510855;31;20028;-68
2022/11/20 02:37:53;;;;;;;;;;;17.70;66.30;;;;;;4513391;31;20139;-68
2022/11/20 02:40:19;;;;;;;;;;;17.70;66.30;;;;;;4511377;31;20020;-67
2022/11/20 02:42:44;;;;;;;;;;;17.70;66.30;;;;;;4512866;31;20090;-69
2022/11/20 02:45:10;;;;;;;;;;;17.70;66.30;;;;;;4512824;31;20440;-68
2022/11/20 02:47:36;;;;;;;;;;;17.70;66.30;;;;;;4511572;31;20043;-69
2022/11/20 02:50:03;;;;;;;;;;;17.70;67.10;;;;;;4512241;31;20016;-68
2022/11/20 02:52:28;;;;;;;;;;;17.70;66.30;;;;;;4511084;31;20040;-68
2022/11/20 02:54:54;;;;;;;;;;;17.60;66.20;;;;;;4511099;31;20198;-68
2022/11/20 02:57:20;;;;;;;;;;;17.60;66.20;;;;;;4511001;31;20065;-68
2022/11/20 02:59:45;;;;;;;;;;;17.60;66.20;;;;;;4513014;31;20072;-67
2022/11/20 03:02:11;;;;;;;;;;;17.60;66.20;;;;;;4511578;31;19977;-67
2022/11/20 03:04:37;;;;;;;;;;;17.60;66.20;;;;;;4511262;31;20155;-65
2022/11/20 03:07:03;;;;;;;;;;;17.60;66.20;;;;;;4513213;31;20038;-67
2022/11/20 03:09:30;;;;;;;;;;;17.60;66.20;;;;;;4509888;31;20114;-67
2022/11/20 03:11:56;;;;;;;;;;;17.60;66.20;;;;;;4512866;31;20029;-67
2022/11/20 03:14:22;;;;;;;;;;;17.50;66.20;;;;;;4523192;31;20146;-67
2022/11/20 03:16:47;;;;;;;;;;;17.60;66.20;;;;;;4508515;31;20652;-68
2022/11/20 03:19:13;;;;;;;;;;;17.50;66.20;;;;;;4512240;31;20020;-67
2022/11/20 03:21:39;;;;;;;;;;;17.50;66.10;;;;;;4523718;31;20535;-67
2022/11/20 03:24:05;;;;;;;;;;;17.50;66.20;;;;;;4498487;31;20064;-67
2022/11/20 03:26:30;;;;;;;;;;;17.50;66.20;;;;;;4510962;31;20074;-67
2022/11/20 03:28:57;;;;;;;;;;;17.50;67.00;;;;;;4512958;31;20083;-67
2022/11/20 03:31:24;;;;;;;;;;;17.50;66.20;;;;;;4510917;31;20285;-67
2022/11/20 03:33:50;;;;;;;;;;;17.50;66.20;;;;;;4512910;31;20029;-67
2022/11/20 03:36:17;;;;;;;;;;;17.50;66.30;;;;;;4511881;31;20013;-66
2022/11/20 03:38:43;;;;;;;;;;;17.50;66.20;;;;;;4511593;31;20028;-68
2022/11/20 03:41:19;;;;;;;;;;;17.50;66.30;;;;;;4512593;31;20036;-66
2022/11/20 03:43:49;;;;;;;;;;;17.50;66.10;;;;;;4513675;31;20454;-68
2022/11/20 03:46:14;;;;;;;;;;;17.40;66.20;;;;;;4524782;31;20576;-67
2022/11/20 03:48:41;;;;;;;;;;;17.40;66.20;;;;;;4513371;31;20048;-67
2022/11/20 03:51:10;;;;;;;;;;;17.40;66.20;;;;;;4514030;31;20654;-66
2022/11/20 03:53:36;;;;;;;;;;;17.40;66.20;;;;;;4515065;31;19983;-66
2022/11/20 03:56:02;;;;;;;;;;;17.40;66.20;;;;;;4514078;31;20028;-66
2022/11/20 03:58:28;;;;;;;;;;;17.40;66.20;;;;;;4513129;31;20432;-66
2022/11/20 04:00:53;;;;;;;;;;;17.40;66.20;;;;;;4513436;31;20024;-67
2022/11/20 04:03:20;;;;;;;;;;;17.40;66.20;;;;;;4527428;31;20040;-67
2022/11/20 04:05:46;;;;;;;;;;;17.40;66.20;;;;;;4513542;31;20046;-67
2022/11/20 04:08:11;;;;;;;;;;;17.40;66.20;;;;;;4527403;31;20028;-67
2022/11/20 04:10:38;;;;;;;;;;;17.40;66.20;;;;;;4512483;31;20036;-66
2022/11/20 04:13:04;;;;;;;;;;;17.40;66.20;;;;;;4510838;31;20017;-67
2022/11/20 04:15:29;;;;;;;;;;;17.40;66.30;;;;;;4504889;31;20173;-66
2022/11/20 04:17:55;;;;;;;;;;;17.30;66.20;;;;;;4510041;31;20064;-67
2022/11/20 04:20:21;;;;;;;;;;;17.30;66.20;;;;;;4513925;31;20025;-67
2022/11/20 04:22:47;;;;;;;;;;;17.30;67.10;;;;;;4513068;31;20031;-68
2022/11/20 04:25:13;;;;;;;;;;;17.30;66.30;;;;;;4515122;31;20028;-67
2022/11/20 04:27:40;;;;;;;;;;;17.30;66.30;;;;;;4526060;31;20044;-67
2022/11/20 04:30:06;;;;;;;;;;;17.30;66.20;;;;;;4506105;31;20505;-66
2022/11/20 04:32:32;;;;;;;;;;;17.30;66.30;;;;;;4503274;31;20044;-66
2022/11/20 04:34:58;;;;;;;;;;;17.30;66.40;;;;;;4512581;31;20016;-66
2022/11/20 04:37:23;;;;;;;;;;;17.30;66.30;;;;;;4513601;31;20765;-66
2022/11/20 04:39:49;;;;;;;;;;;17.20;66.30;;;;;;4508080;31;20110;-66
2022/11/20 04:42:30;;;;;;;;;;;17.30;66.40;;;;;;4511040;31;20028;-66
2022/11/20 04:44:57;;;;;;;;;;;17.20;66.30;;;;;;4509505;31;19978;-66
2022/11/20 04:47:22;;;;;;;;;;;17.30;66.40;;;;;;4509781;31;20025;-66
2022/11/20 04:49:48;;;;;;;;;;;17.20;66.30;;;;;;4520419;31;20032;-66
2022/11/20 04:52:14;;;;;;;;;;;17.20;66.30;;;;;;4509760;31;20021;-66
2022/11/20 04:54:40;;;;;;;;;;;17.20;66.40;;;;;;4509589;31;20659;-66
2022/11/20 04:57:06;;;;;;;;;;;17.20;66.30;;;;;;4504838;31;20565;-66
2022/11/20 04:59:31;;;;;;;;;;;17.20;66.40;;;;;;4497310;31;20035;-66
2022/11/20 05:01:57;;;;;;;;;;;17.20;66.40;;;;;;4514020;31;20025;-66
2022/11/20 05:04:23;;;;;;;;;;;17.20;66.40;;;;;;4526303;31;20028;-66
2022/11/20 05:06:49;;;;;;;;;;;17.20;66.40;;;;;;4498263;31;20148;-66
2022/11/20 05:09:15;;;;;;;;;;;17.20;66.40;;;;;;4505567;31;20456;-66
2022/11/20 05:11:41;;;;;;;;;;;17.10;66.40;;;;;;4499599;31;20029;-66
2022/11/20 05:14:07;;;;;;;;;;;17.20;66.40;;;;;;4504841;31;20031;-66
2022/11/20 05:16:35;;;;;;;;;;;17.10;66.40;;;;;;4514775;31;20043;-66
2022/11/20 05:19:01;;;;;;;;;;;17.10;66.40;;;;;;4512676;31;20036;-66
2022/11/20 05:21:29;;;;;;;;;;;17.10;66.40;;;;;;4513958;31;20575;-66
2022/11/20 05:23:55;;;;;;;;;;;17.10;66.40;;;;;;4514662;31;20162;-66
2022/11/20 05:26:21;;;;;;;;;;;17.10;66.40;;;;;;4511880;31;20033;-66
2022/11/20 05:28:48;;;;;;;;;;;17.10;66.40;;;;;;4514787;31;20033;-66
2022/11/20 05:31:18;;;;;;;;;;;17.10;66.50;;;;;;4503434;31;20087;-66
2022/11/20 05:33:44;;;;;;;;;;;17.10;66.40;;;;;;4511217;31;20504;-66
2022/11/20 05:36:10;;;;;;;;;;;17.10;66.50;;;;;;4513707;31;20025;-66
2022/11/20 05:38:37;;;;;;;;;;;17.10;66.60;;;;;;4512494;31;20141;-66
2022/11/20 05:41:03;;;;;;;;;;;17.10;66.60;;;;;;4514305;31;20093;-66
2022/11/20 05:43:31;;;;;;;;;;;17.10;66.60;;;;;;4524900;31;20036;-66
2022/11/20 05:45:57;;;;;;;;;;;17.10;66.60;;;;;;4514501;31;20087;-66
2022/11/20 05:48:22;;;;;;;;;;;17.10;66.60;;;;;;4524686;31;20159;-66
2022/11/20 05:50:48;;;;;;;;;;;17.10;66.60;;;;;;4513278;31;20031;-66
2022/11/20 05:53:14;;;;;;;;;;;17.00;66.60;;;;;;4512972;31;20039;-66
2022/11/20 05:55:40;;;;;;;;;;;17.00;66.60;;;;;;4513764;31;20555;-66
2022/11/20 05:58:06;;;;;;;;;;;17.00;66.70;;;;;;4514105;31;20452;-66
2022/11/20 06:00:32;;;;;;;;;;;17.00;66.60;;;;;;4512422;31;20562;-66
2022/11/20 06:02:58;;;;;;;;;;;17.00;66.60;;;;;;4501930;31;20040;-66
2022/11/20 06:05:24;;;;;;;;;;;17.00;66.60;;;;;;4524068;31;20086;-66
2022/11/20 06:07:50;;;;;;;;;;;17.00;66.60;;;;;;4514402;31;20071;-66
2022/11/20 06:10:15;;;;;;;;;;;17.00;66.60;;;;;;4512575;31;20025;-66
2022/11/20 06:12:42;;;;;;;;;;;17.00;66.70;;;;;;4513766;31;20161;-66
2022/11/20 06:15:08;;;;;;;;;;;17.00;66.70;;;;;;4513631;31;20107;-65
2022/11/20 06:17:34;;;;;;;;;;;17.00;66.70;;;;;;4503393;31;20048;-66
2022/11/20 06:19:59;;;;;;;;;;;17.00;66.80;;;;;;4510822;31;20024;-66
2022/11/20 06:22:25;;;;;;;;;;;17.00;66.80;;;;;;4511188;31;20204;-66
2022/11/20 06:24:51;;;;;;;;;;;17.00;66.80;;;;;;4513239;31;20021;-66
2022/11/20 06:27:17;;;;;;;;;;;16.90;66.70;;;;;;4509921;31;20036;-66
2022/11/20 06:29:43;;;;;;;;;;;16.90;66.70;;;;;;4505891;31;20407;-66
2022/11/20 06:32:09;;;;;;;;;;;16.90;66.80;;;;;;4512903;31;19976;-66
2022/11/20 06:34:34;;;;;;;;;;;16.90;66.80;;;;;;4512154;31;20015;-66
2022/11/20 06:37:00;;;;;;;;;;;16.90;66.80;;;;;;4495048;31;20046;-66
2022/11/20 06:39:26;;;;;;;;;;;16.90;66.80;;;;;;4510103;31;20043;-66
2022/11/20 06:41:52;;;;;;;;;;;16.90;66.90;;;;;;4512131;31;20005;-66
2022/11/20 06:44:18;;;;;;;;;;;16.90;66.90;;;;;;4509081;31;20415;-66
2022/11/20 06:46:44;;;;;;;;;;;16.90;66.80;;;;;;4510767;31;20029;-66
2022/11/20 06:49:09;;;;;;;;;;;16.90;66.80;;;;;;4497575;31;20134;-65
2022/11/20 06:51:35;;;;;;;;;;;16.90;66.80;;;;;;4496312;31;20017;-66
2022/11/20 06:54:01;;;;;;;;;;;16.90;66.80;;;;;;4507806;31;20487;-66
2022/11/20 06:56:27;;;;;;;;;;;16.90;66.90;;;;;;4509254;31;20021;-66
2022/11/20 06:58:53;;;;;;;;;;;16.80;66.70;;;;;;4513829;31;20098;-66
2022/11/20 07:01:19;;;;;;;;;;;16.90;66.80;;;;;;4499519;31;20033;-66
2022/11/20 07:03:45;;;;;;;;;;;16.80;66.70;;;;;;4513741;31;20049;-66
2022/11/20 07:06:11;;;;;;;;;;;16.80;66.80;;;;;;4512587;31;20021;-65
2022/11/20 07:08:36;;;;;;;;;;;16.80;66.80;;;;;;4512622;31;20041;-66
2022/11/20 07:11:04;;;;;;;;;;;16.80;66.80;;;;;;4513627;31;20086;-66
2022/11/20 07:13:32;;;;;;;;;;;16.80;66.80;;;;;;4511680;31;20032;-66
2022/11/20 07:16:05;;;;;;;;;;;16.80;66.80;;;;;;4513678;31;20150;-66
2022/11/20 07:18:30;;;;;;;;;;;16.80;66.80;;;;;;4514866;31;20048;-66
2022/11/20 07:20:59;;;;;;;;;;;16.80;66.80;;;;;;4516649;31;20013;-66
2022/11/20 07:23:26;;;;;;;;;;;16.80;66.80;;;;;;4515699;31;19977;-66
2022/11/20 07:25:52;;;;;;;;;;;16.80;66.80;;;;;;4507505;31;20036;-66
2022/11/20 07:28:17;;;;;;;;;;;16.70;66.70;;;;;;4511232;31;20024;-66
2022/11/20 07:30:49;;;;;;;;;;;16.80;66.80;;;;;;4514688;31;20088;-66
2022/11/20 07:33:14;;;;;;;;;;;16.80;66.80;;;;;;4516611;31;20154;-66
2022/11/20 07:35:40;;;;;;;;;;;16.70;66.70;;;;;;4514543;31;20037;-66
2022/11/20 07:38:06;;;;;;;;;;;16.80;67.60;;;;;;4516337;31;20394;-66
2022/11/20 07:40:32;;;;;;;;;;;16.70;66.80;;;;;;4515282;31;20080;-65
2022/11/20 07:42:57;;;;;;;;;;;16.70;66.80;;;;;;4515039;31;20058;-66
2022/11/20 07:45:24;;;;;;;;;;;16.70;66.70;;;;;;4516288;31;20070;-66
2022/11/20 07:47:50;;;;;;;;;;;16.70;66.70;;;;;;4514381;31;20028;-66
2022/11/20 07:50:16;;;;;;;;;;;16.70;66.80;;;;;;4516317;31;20039;-66
2022/11/20 07:52:41;;;;;;;;;;;16.70;66.80;;;;;;4514246;31;20036;-66
2022/11/20 07:55:08;;;;;;;;;;;16.70;66.80;;;;;;4505986;31;20083;-66
2022/11/20 07:57:34;;;;;;;;;;;16.70;66.80;;;;;;4522217;31;20032;-66
2022/11/20 08:00:00;;;;;;;;;;;16.70;66.80;;;;;;4498488;31;20491;-66
2022/11/20 08:02:25;;;;;;;;;;;16.70;66.80;;;;;;4508157;31;20154;-66
2022/11/20 08:04:52;;;;;;;;;;;16.70;66.80;;;;;;4514009;31;20078;-66
2022/11/20 08:07:18;;;;;;;;;;;16.70;66.80;;;;;;4515186;31;20020;-65
2022/11/20 08:09:44;;;;;;;;;;;16.70;66.90;;;;;;4513834;31;20097;-66
2022/11/20 08:15:06;;;;;;;;;;;16.70;66.90;;;;;;4515091;31;20003;-66
2022/11/20 08:17:31;;;;;;;;;;;16.70;66.80;;;;;;4512668;31;20020;-66
2022/11/20 08:19:57;;;;;;;;;;;16.60;66.80;;;;;;4513023;31;20103;-66
2022/11/20 08:22:23;;;;;;;;;;;16.60;66.80;;;;;;4497820;31;20017;-66
2022/11/20 08:24:49;;;;;;;;;;;16.60;66.80;;;;;;4513924;31;20039;-66
2022/11/20 08:27:15;;;;;;;;;;;16.60;66.80;;;;;;4497829;31;20013;-66
2022/11/20 08:29:40;;;;;;;;;;;16.60;66.80;;;;;;4500655;31;20028;-66
2022/11/20 08:32:06;;;;;;;;;;;16.60;66.80;;;;;;4501264;31;20079;-66
2022/11/20 08:34:32;;;;;;;;;;;16.60;66.80;;;;;;4511397;31;20147;-66
2022/11/20 08:36:58;;;;;;;;;;;16.60;66.80;;;;;;4501704;31;20012;-65
2022/11/20 08:39:24;;;;;;;;;;;16.60;66.80;;;;;;4502801;31;20020;-66
2022/11/20 08:41:50;;;;;;;;;;;16.60;66.80;;;;;;4505118;31;20035;-67
2022/11/20 08:44:16;;;;;;;;;;;16.60;66.90;;;;;;4501237;31;19996;-65
2022/11/20 08:46:43;;;;;;;;;;;16.60;66.70;;;;;;4505727;31;20025;-65
2022/11/20 08:49:10;;;;;;;;;;;16.50;65.40;;;;;;4500850;31;19981;-65
2022/11/20 08:51:36;;;;;;;;;;;16.50;65.50;;;;;;4499238;31;20083;-65
2022/11/20 08:54:02;;;;;;;;;;;16.50;66.00;;;;;;4501454;31;20094;-65
2022/11/20 08:56:29;;;;;;;;;;;16.50;66.20;;;;;;4512236;31;20029;-65
2022/11/20 08:58:55;;;;;;;;;;;16.50;66.40;;;;;;4501036;31;20070;-65
2022/11/20 09:01:22;;;;;;;;;;;16.60;66.70;;;;;;4513162;31;20017;-65
2022/11/20 09:03:48;;;;;;;;;;;16.60;67.60;;;;;;4515151;31;20135;-64
2022/11/20 09:06:15;;;;;;;;;;;16.60;66.80;;;;;;4514340;31;20040;-64
2022/11/20 09:08:41;;;;;;;;;;;16.70;66.50;;;;;;4513804;31;20109;-65
2022/11/20 09:11:07;;;;;;;;;;;16.80;66.10;;;;;;4515008;31;20048;-64
2022/11/20 09:13:34;;;;;;;;;;;16.90;65.90;;;;;;4513027;31;20043;-64
2022/11/20 09:16:02;;;;;;;;;;;17.00;65.70;;;;;;4501051;31;20044;-64
2022/11/20 09:18:28;;;;;;;;;;;17.10;65.40;;;;;;4513079;31;20024;-65
2022/11/20 09:20:58;;;;;;;;;;;17.20;65.10;;;;;;4527139;31;20173;-64
2022/11/20 09:23:23;;;;;;;;;;;17.40;65.80;;;;;;4513843;31;19991;-64
2022/11/20 09:25:50;;;;;;;;;;;17.50;64.70;;;;;;4513474;31;20044;-65
2022/11/20 09:28:18;;;;;;;;;;;17.60;64.50;;;;;;4515005;31;20021;-65
2022/11/20 09:30:44;;;;;;;;;;;17.70;64.30;;;;;;4512966;31;20044;-65
2022/11/20 09:33:09;;;;;;;;;;;17.80;64.10;;;;;;4527087;31;20409;-65
2022/11/20 09:35:35;;;;;;;;;;;17.90;63.90;;;;;;4512388;31;20078;-65
2022/11/20 09:38:05;;;;;;;;;;;17.90;63.80;;;;;;4514815;31;20503;-65
2022/11/20 09:40:30;;;;;;;;;;;18.00;63.70;;;;;;4513102;31;19977;-65
2022/11/20 09:43:19;;;;;;;;;;;18.00;63.50;;;;;;4513282;31;20021;-65
2022/11/20 09:46:07;;;;;;;;;;;18.10;63.40;;;;;;4502812;31;20021;-65
2022/11/20 09:48:33;;;;;;;;;;;18.20;63.30;;;;;;4512874;31;20136;-64
2022/11/20 09:51:08;;;;;;;;;;;18.20;63.30;;;;;;4513219;31;20491;-65
2022/11/20 09:53:34;;;;;;;;;;;18.30;63.20;;;;;;4514272;31;19989;-64
2022/11/20 09:56:01;;;;;;;;;;;18.30;63.10;;;;;;4512590;31;20039;-66
2022/11/20 09:58:37;;;;;;;;;;;18.40;63.00;;;;;;4514541;31;20005;-66
2022/11/20 10:01:10;;;;;;;;;;;18.40;63.00;;;;;;4512206;31;20079;-65
2022/11/20 10:04:15;;;;;;;;;;;18.40;62.80;;;;;;4512193;31;20151;-65
2022/11/20 10:07:00;;;;;;;;;;;18.50;62.80;;;;;;4512017;31;20044;-65
2022/11/20 10:09:30;;;;;;;;;;;18.50;62.70;;;;;;4512165;31;20041;-65
2022/11/20 10:11:56;;;;;;;;;;;18.60;62.60;;;;;;4513622;31;20097;-65
2022/11/20 10:14:22;;;;;;;;;;;18.60;62.50;;;;;;4512091;31;20025;-65
2022/11/20 10:16:52;;;;;;;;;;;18.60;62.40;;;;;;4513174;31;20037;-65
2022/11/20 10:19:56;;;;;;;;;;;18.60;62.30;;;;;;4513349;31;19989;-65
2022/11/20 10:22:31;;;;;;;;;;;18.60;62.30;;;;;;4507567;31;20025;-65
2022/11/20 10:25:02;;;;;;;;;;;18.60;62.20;;;;;;4509278;31;20028;-65
2022/11/20 10:27:33;;;;;;;;;;;18.70;62.20;;;;;;4511525;31;20090;-65
2022/11/20 10:30:07;;;;;;;;;;;18.70;62.00;;;;;;4512352;31;20466;-65
2022/11/20 10:32:38;;;;;;;;;;;18.80;62.00;;;;;;4513634;31;20787;-66
2022/11/20 10:35:24;;;;;;;;;;;18.80;62.00;;;;;;4523740;31;20088;-66
2022/11/20 10:37:56;;;;;;;;;;;18.80;62.00;;;;;;4506548;31;20026;-66
2022/11/20 10:40:39;;;;;;;;;;;18.80;61.90;;;;;;4509347;31;20055;-65
2022/11/20 10:43:28;;;;;;;;;;;18.90;61.90;;;;;;4505119;31;20033;-66
2022/11/20 10:46:04;;;;;;;;;;;18.80;61.90;;;;;;4508687;31;20378;-66
2022/11/20 10:48:31;;;;;;;;;;;18.90;61.90;;;;;;4503030;31;20028;-66
2022/11/20 10:50:57;;;;;;;;;;;18.80;61.80;;;;;;4503290;31;20036;-66
2022/11/20 10:53:23;;;;;;;;;;;18.80;61.90;;;;;;4508248;31;19969;-65
2022/11/20 10:55:58;;;;;;;;;;;18.90;62.00;;;;;;4511435;31;20645;-66
2022/11/20 10:58:36;;;;;;;;;;;18.90;62.00;;;;;;4517318;31;20090;-65
2022/11/20 11:01:05;;;;;;;;;;;18.90;61.90;;;;;;4515117;31;20029;-66
2022/11/20 11:03:32;;;;;;;;;;;18.90;61.90;;;;;;4515634;31;20226;-65
2022/11/20 11:06:02;;;;;;;;;;;18.90;61.90;;;;;;4522096;31;20039;-65
2022/11/20 11:08:30;;;;;;;;;;;18.90;62.00;;;;;;4515903;31;20032;-65
2022/11/20 11:11:25;;;;;;;;;;;18.90;62.00;;;;;;4515838;31;20052;-66
2022/11/20 11:13:51;;;;;;;;;;;19.00;62.10;;;;;;4507607;31;20040;-67
2022/11/20 11:16:26;;;;;;;;;;;19.00;62.10;;;;;;4511774;31;20032;-65
2022/11/20 11:19:13;;;;;;;;;;;19.00;62.10;;;;;;4505353;31;20048;-66
2022/11/20 11:21:45;;;;;;;;;;;19.10;62.10;;;;;;4515119;31;20155;-67
2022/11/20 11:24:21;;;;;;;;;;;19.10;62.00;;;;;;4516595;31;20025;-68
2022/11/20 11:27:04;;;;;;;;;;;19.10;62.00;;;;;;4514689;31;20091;-66
2022/11/20 11:29:30;;;;;;;;;;;19.10;61.90;;;;;;4516893;31;20394;-69
2022/11/20 11:32:11;;;;;;;;;;;19.20;61.90;;;;;;4515937;31;19977;-69
2022/11/20 11:34:37;;;;;;;;;;;19.20;61.90;;;;;;4514692;31;20047;-69
2022/11/20 11:37:03;;;;;;;;;;;19.20;61.80;;;;;;4497953;31;20025;-65
2022/11/20 11:39:30;;;;;;;;;;;19.20;61.70;;;;;;4514377;31;20101;-66
2022/11/20 11:42:00;;;;;;;;;;;19.30;61.70;;;;;;4507531;31;20505;-66
2022/11/20 11:47:21;;;;;;;;;;;19.30;61.50;;;;;;4514946;31;20045;-68
2022/11/20 11:49:46;;;;;;;;;;;19.30;61.40;;;;;;4509870;31;20086;-68
2022/11/20 11:52:21;;;;;;;;;;;19.30;61.40;;;;;;4506684;31;20029;-68
2022/11/20 11:55:00;;;;;;;;;;;19.30;61.50;;;;;;4511977;31;20040;-68
2022/11/20 11:57:29;;;;;;;;;;;19.30;61.50;;;;;;4515120;31;20024;-67
2022/11/20 12:00:04;;;;;;;;;;;19.40;61.60;;;;;;4513867;31;20039;-68
2022/11/20 12:02:38;;;;;;;;;;;19.40;61.60;;;;;;4514399;31;20468;-66
2022/11/20 12:05:23;;;;;;;;;;;19.40;61.60;;;;;;4513751;31;20094;-66
2022/11/20 12:07:58;;;;;;;;;;;19.40;61.50;;;;;;4515617;31;20202;-68
2022/11/20 12:10:41;;;;;;;;;;;19.40;61.50;;;;;;4506751;31;20044;-68
2022/11/20 12:13:30;;;;;;;;;;;19.50;61.60;;;;;;4513989;31;20147;-68
2022/11/20 12:15:55;;;;;;;;;;;19.40;61.50;;;;;;4506749;31;20068;-69
2022/11/20 12:18:22;;;;;;;;;;;19.50;61.30;;;;;;4517535;31;20151;-66
2022/11/20 12:21:09;;;;;;;;;;;19.40;61.20;;;;;;4504731;31;20036;-66
2022/11/20 12:23:53;;;;;;;;;;;19.40;61.00;;;;;;4514347;31;20220;-65
2022/11/20 12:26:31;;;;;;;;;;;19.40;60.90;;;;;;4503036;31;20147;-66
2022/11/20 12:29:03;;;;;;;;;;;19.40;60.80;;;;;;4515639;31;20470;-67
2022/11/20 12:31:40;;;;;;;;;;;19.40;60.80;;;;;;4504631;31;20563;-66
2022/11/20 12:34:13;;;;;;;;;;;19.40;60.80;;;;;;4507416;31;20043;-66
2022/11/20 12:37:02;;;;;;;;;;;19.40;60.70;;;;;;4515725;31;20028;-65
2022/11/20 12:39:35;;;;;;;;;;;19.40;60.70;;;;;;4507802;31;20041;-67
2022/11/20 12:45:09;;;;;;;;;;;19.50;60.60;;;;;;4508688;31;19988;-64
2022/11/20 12:47:54;;;;;;;;;;;19.50;60.60;;;;;;4508465;31;20037;-64
2022/11/20 12:50:29;;;;;;;;;;;19.50;60.60;;;;;;4510512;31;20110;-66
2022/11/20 12:53:05;;;;;;;;;;;19.50;60.50;;;;;;4509078;31;20076;-66
2022/11/20 12:55:34;;;;;;;;;;;19.50;60.40;;;;;;4514144;31;20005;-66
2022/11/20 12:58:11;;;;;;;;;;;19.60;60.40;;;;;;4515103;31;20029;-63
2022/11/20 13:00:42;;;;;;;;;;;19.60;60.30;;;;;;4511126;31;20145;-65
2022/11/20 13:03:08;;;;;;;;;;;19.60;60.30;;;;;;4513788;31;20121;-66
2022/11/20 13:05:33;;;;;;;;;;;19.60;60.30;;;;;;4512421;31;20036;-68
2022/11/20 13:08:00;;;;;;;;;;;19.60;60.30;;;;;;4514546;31;20084;-68
2022/11/20 13:10:41;;;;;;;;;;;19.60;60.30;;;;;;4513335;31;20092;-66
2022/11/20 13:13:12;;;;;;;;;;;19.60;60.30;;;;;;4489958;31;31825;-67
2022/11/20 13:16:01;;;;;;;;;;;19.60;60.30;;;;;;4510839;31;20083;-66
2022/11/20 13:18:33;;;;;;;;;;;19.60;60.30;;;;;;4488925;31;20049;-67
2022/11/20 13:21:00;;;;;;;;;;;19.60;60.30;;;;;;4513227;31;20028;-68
2022/11/20 13:23:27;;;;;;;;;;;19.60;60.30;;;;;;4513591;31;20493;-65
2022/11/20 13:26:03;;;;;;;;;;;19.70;60.40;;;;;;4512511;31;20057;-67
2022/11/20 13:28:30;;;;;;;;;;;19.70;60.30;;;;;;4514266;31;20052;-66
2022/11/20 13:30:56;;;;;;;;;;;19.70;60.30;;;;;;4511211;31;20371;-66
2022/11/20 13:33:28;;;;;;;;;;;19.70;60.30;;;;;;4513695;31;20044;-65
2022/11/20 13:35:55;;;;;;;;;;;19.70;60.20;;;;;;4511697;31;20641;-66
2022/11/20 13:38:21;;;;;;;;;;;19.80;60.30;;;;;;4513320;31;20110;-66
2022/11/20 13:40:55;;;;;;;;;;;19.80;60.30;;;;;;4512905;31;20130;-66
2022/11/20 13:43:42;;;;;;;;;;;19.80;60.30;;;;;;4506257;31;20036;-65
2022/11/20 13:46:10;;;;;;;;;;;19.80;60.30;;;;;;4506247;31;20151;-64
2022/11/20 13:48:45;;;;;;;;;;;19.80;60.20;;;;;;4512720;31;20044;-66
2022/11/20 13:51:29;;;;;;;;;;;19.70;60.00;;;;;;4513849;31;20406;-66
2022/11/20 13:54:07;;;;;;;;;;;19.70;60.00;;;;;;4514159;31;20043;-66
2022/11/20 13:56:52;;;;;;;;;;;19.70;59.80;;;;;;4511167;31;20571;-66
2022/11/20 13:59:28;;;;;;;;;;;19.70;59.70;;;;;;4514318;31;20029;-66
2022/11/20 14:01:55;;;;;;;;;;;19.80;59.70;;;;;;4514232;31;20131;-66
2022/11/20 14:04:30;;;;;;;;;;;19.80;59.60;;;;;;4512893;31;20130;-66
2022/11/20 14:06:55;;;;;;;;;;;19.80;59.60;;;;;;4503680;31;20138;-66
2022/11/20 14:09:26;;;;;;;;;;;19.80;59.40;;;;;;4512395;31;20028;-66
2022/11/20 14:11:51;;;;;;;;;;;19.80;59.40;;;;;;4513919;31;20020;-66
2022/11/20 14:14:19;;;;;;;;;;;19.80;59.40;;;;;;4512476;31;20104;-66
2022/11/20 14:16:45;;;;;;;;;;;19.80;59.40;;;;;;4513613;31;20021;-66
2022/11/20 14:19:20;;;;;;;;;;;19.80;59.40;;;;;;4513952;31;19973;-66
2022/11/20 14:21:47;;;;;;;;;;;19.80;59.30;;;;;;4512129;31;20746;-66
2022/11/20 14:24:13;;;;;;;;;;;19.80;59.30;;;;;;4526119;31;20044;-66
2022/11/20 14:26:43;;;;;;;;;;;19.80;59.30;;;;;;4511731;31;20042;-66
2022/11/20 14:29:17;;;;;;;;;;;19.80;59.20;;;;;;4514158;31;20531;-66
2022/11/20 14:31:44;;;;;;;;;;;19.90;59.20;;;;;;4513206;31;20130;-65
2022/11/20 14:34:20;;;;;;;;;;;19.90;59.20;;;;;;4512791;31;20133;-66
2022/11/20 14:36:47;;;;;;;;;;;19.90;59.20;;;;;;4513945;31;20036;-66